sensor_id;sensor_type;location;lat;lon;timestamp;P1;durP1;ratioP1;P2;durP2;ratioP2
17079;SDS011;8655;57.106;-2.088;2023-02-28T06:31:39;0.60;;;0.50;;
17079;SDS011;8655;57.106;-2.088;2023-02-28T06:34:05;0.40;;;0.40;;
17079;SDS011;8655;57.106;-2.088;2023-02-28T06:36:30;0.40;;;0.40;;
17079;SDS011;8655;57.106;-2.088;2023-02-28T06:38:56;0.50;;;0.50;;
17079;SDS011;8655;57.106;-2.088;2023-02-28T06:41:23;0.60;;;0.60;;
17079;SDS011;8655;57.106;-2.088;2023-02-28T06:43:50;0.60;;;0.60;;
17079;SDS011;8655;57.106;-2.088;2023-02-28T06:46:16;0.60;;;0.50;;
17079;SDS011;8655;57.106;-2.088;2023-02-28T06:48:44;0.40;;;0.40;;
17079;SDS011;8655;57.106;-2.088;2023-02-28T06:51:12;0.40;;;0.40;;
17079;SDS011;8655;57.106;-2.088;2023-02-28T06:53:40;0.60;;;0.60;;
17079;SDS011;8655;57.106;-2.088;2023-02-28T06:56:07;0.70;;;0.60;;
17079;SDS011;8655;57.106;-2.088;2023-02-28T06:58:34;0.57;;;0.50;;
17079;SDS011;8655;57.106;-2.088;2023-02-28T07:01:00;0.63;;;0.40;;
17079;SDS011;8655;57.106;-2.088;2023-02-28T07:03:26;0.50;;;0.50;;
17079;SDS011;8655;57.106;-2.088;2023-02-28T07:05:52;0.50;;;0.50;;
17079;SDS011;8655;57.106;-2.088;2023-02-28T07:08:18;0.50;;;0.50;;
17079;SDS011;8655;57.106;-2.088;2023-02-28T07:10:44;0.50;;;0.50;;
17079;SDS011;8655;57.106;-2.088;2023-02-28T07:13:10;0.40;;;0.40;;
17079;SDS011;8655;57.106;-2.088;2023-02-28T07:15:36;0.50;;;0.50;;
17079;SDS011;8655;57.106;-2.088;2023-02-28T07:18:02;0.50;;;0.50;;
17079;SDS011;8655;57.106;-2.088;2023-02-28T07:20:28;1.27;;;0.50;;
17079;SDS011;8655;57.106;-2.088;2023-02-28T07:22:55;0.40;;;0.40;;
17079;SDS011;8655;57.106;-2.088;2023-02-28T07:25:27;1.03;;;0.60;;
17079;SDS011;8655;57.106;-2.088;2023-02-28T07:27:54;0.50;;;0.50;;
17079;SDS011;8655;57.106;-2.088;2023-02-28T07:30:21;0.40;;;0.40;;
17079;SDS011;8655;57.106;-2.088;2023-02-28T07:32:46;0.33;;;0.33;;
17079;SDS011;8655;57.106;-2.088;2023-02-28T07:35:12;0.83;;;0.40;;
17079;SDS011;8655;57.106;-2.088;2023-02-28T07:37:40;0.50;;;0.50;;
17079;SDS011;8655;57.106;-2.088;2023-02-28T07:40:07;0.50;;;0.50;;
17079;SDS011;8655;57.106;-2.088;2023-02-28T07:42:34;2.13;;;0.50;;
17079;SDS011;8655;57.106;-2.088;2023-02-28T07:45:01;0.40;;;0.40;;
17079;SDS011;8655;57.106;-2.088;2023-02-28T07:47:28;0.43;;;0.43;;
17079;SDS011;8655;57.106;-2.088;2023-02-28T07:49:55;0.70;;;0.57;;
17079;SDS011;8655;57.106;-2.088;2023-02-28T07:52:21;0.30;;;0.30;;
17079;SDS011;8655;57.106;-2.088;2023-02-28T07:54:48;0.50;;;0.50;;
17079;SDS011;8655;57.106;-2.088;2023-02-28T07:57:14;0.50;;;0.50;;
17079;SDS011;8655;57.106;-2.088;2023-02-28T07:59:40;0.80;;;0.67;;
17079;SDS011;8655;57.106;-2.088;2023-02-28T08:02:05;0.87;;;0.60;;
17079;SDS011;8655;57.106;-2.088;2023-02-28T08:04:31;1.08;;;0.70;;
17079;SDS011;8655;57.106;-2.088;2023-02-28T08:06:57;0.50;;;0.50;;
17079;SDS011;8655;57.106;-2.088;2023-02-28T08:09:23;0.68;;;0.52;;
17079;SDS011;8655;57.106;-2.088;2023-02-28T08:11:49;1.15;;;0.70;;
17079;SDS011;8655;57.106;-2.088;2023-02-28T08:14:15;0.88;;;0.70;;
17079;SDS011;8655;57.106;-2.088;2023-02-28T08:16:41;0.60;;;0.60;;
17079;SDS011;8655;57.106;-2.088;2023-02-28T08:19:08;0.70;;;0.70;;
17079;SDS011;8655;57.106;-2.088;2023-02-28T08:21:34;0.60;;;0.60;;
17079;SDS011;8655;57.106;-2.088;2023-02-28T08:23:59;0.68;;;0.68;;
17079;SDS011;8655;57.106;-2.088;2023-02-28T08:26:25;0.47;;;0.47;;
17079;SDS011;8655;57.106;-2.088;2023-02-28T08:28:51;0.50;;;0.50;;
17079;SDS011;8655;57.106;-2.088;2023-02-28T08:31:17;0.43;;;0.43;;
17079;SDS011;8655;57.106;-2.088;2023-02-28T08:33:43;0.50;;;0.50;;
17079;SDS011;8655;57.106;-2.088;2023-02-28T08:36:14;0.60;;;0.60;;
17079;SDS011;8655;57.106;-2.088;2023-02-28T08:38:40;0.50;;;0.50;;
17079;SDS011;8655;57.106;-2.088;2023-02-28T08:41:07;0.40;;;0.40;;
17079;SDS011;8655;57.106;-2.088;2023-02-28T08:43:35;1.00;;;0.65;;
17079;SDS011;8655;57.106;-2.088;2023-02-28T08:46:01;0.88;;;0.80;;
17079;SDS011;8655;57.106;-2.088;2023-02-28T08:48:27;0.65;;;0.50;;
17079;SDS011;8655;57.106;-2.088;2023-02-28T08:50:55;0.60;;;0.52;;
17079;SDS011;8655;57.106;-2.088;2023-02-28T08:53:25;0.95;;;0.75;;
17079;SDS011;8655;57.106;-2.088;2023-02-28T08:56:00;1.00;;;0.68;;
17079;SDS011;8655;57.106;-2.088;2023-02-28T08:58:28;0.85;;;0.60;;
17079;SDS011;8655;57.106;-2.088;2023-02-28T09:00:54;0.68;;;0.68;;
17079;SDS011;8655;57.106;-2.088;2023-02-28T09:03:20;0.50;;;0.50;;
17079;SDS011;8655;57.106;-2.088;2023-02-28T09:05:53;0.43;;;0.43;;
17079;SDS011;8655;57.106;-2.088;2023-02-28T09:08:20;0.50;;;0.50;;
17079;SDS011;8655;57.106;-2.088;2023-02-28T09:10:46;0.82;;;0.60;;
17079;SDS011;8655;57.106;-2.088;2023-02-28T09:13:12;0.50;;;0.50;;
17079;SDS011;8655;57.106;-2.088;2023-02-28T09:15:38;0.40;;;0.40;;
17079;SDS011;8655;57.106;-2.088;2023-02-28T09:18:04;0.85;;;0.60;;
17079;SDS011;8655;57.106;-2.088;2023-02-28T09:20:30;2.00;;;0.53;;
17079;SDS011;8655;57.106;-2.088;2023-02-28T09:22:55;0.50;;;0.50;;
17079;SDS011;8655;57.106;-2.088;2023-02-28T09:25:21;0.93;;;0.75;;
17079;SDS011;8655;57.106;-2.088;2023-02-28T09:27:47;0.40;;;0.40;;
17079;SDS011;8655;57.106;-2.088;2023-02-28T09:30:13;0.60;;;0.60;;
17079;SDS011;8655;57.106;-2.088;2023-02-28T09:32:39;0.60;;;0.60;;
17079;SDS011;8655;57.106;-2.088;2023-02-28T09:35:05;0.60;;;0.55;;
17079;SDS011;8655;57.106;-2.088;2023-02-28T09:37:31;0.73;;;0.50;;
17079;SDS011;8655;57.106;-2.088;2023-02-28T09:39:57;0.57;;;0.57;;
17079;SDS011;8655;57.106;-2.088;2023-02-28T09:42:41;0.40;;;0.40;;
17079;SDS011;8655;57.106;-2.088;2023-02-28T09:45:10;0.60;;;0.60;;
17079;SDS011;8655;57.106;-2.088;2023-02-28T09:47:45;0.82;;;0.60;;
17079;SDS011;8655;57.106;-2.088;2023-02-28T09:52:44;0.63;;;0.57;;
17079;SDS011;8655;57.106;-2.088;2023-02-28T09:57:57;0.68;;;0.68;;
17079;SDS011;8655;57.106;-2.088;2023-02-28T10:00:34;0.50;;;0.50;;
17079;SDS011;8655;57.106;-2.088;2023-02-28T10:03:15;0.50;;;0.43;;
17079;SDS011;8655;57.106;-2.088;2023-02-28T10:11:34;0.50;;;0.50;;
17079;SDS011;8655;57.106;-2.088;2023-02-28T10:14:10;1.00;;;0.63;;
17079;SDS011;8655;57.106;-2.088;2023-02-28T10:16:50;0.50;;;0.40;;
17079;SDS011;8655;57.106;-2.088;2023-02-28T10:22:10;0.67;;;0.67;;
17079;SDS011;8655;57.106;-2.088;2023-02-28T10:24:46;0.80;;;0.70;;
17079;SDS011;8655;57.106;-2.088;2023-02-28T10:29:52;0.50;;;0.50;;
17079;SDS011;8655;57.106;-2.088;2023-02-28T10:32:20;0.47;;;0.47;;
17079;SDS011;8655;57.106;-2.088;2023-02-28T10:34:55;0.47;;;0.47;;
17079;SDS011;8655;57.106;-2.088;2023-02-28T10:37:25;0.70;;;0.40;;
17079;SDS011;8655;57.106;-2.088;2023-02-28T10:39:52;0.65;;;0.60;;
17079;SDS011;8655;57.106;-2.088;2023-02-28T10:45:06;0.50;;;0.50;;
17079;SDS011;8655;57.106;-2.088;2023-02-28T10:47:35;0.87;;;0.60;;
17079;SDS011;8655;57.106;-2.088;2023-02-28T10:50:23;0.60;;;0.60;;
17079;SDS011;8655;57.106;-2.088;2023-02-28T10:55:44;1.13;;;0.73;;
17079;SDS011;8655;57.106;-2.088;2023-02-28T10:58:26;0.70;;;0.60;;
17079;SDS011;8655;57.106;-2.088;2023-02-28T11:00:57;0.63;;;0.63;;
17079;SDS011;8655;57.106;-2.088;2023-02-28T11:03:31;0.97;;;0.67;;
17079;SDS011;8655;57.106;-2.088;2023-02-28T11:06:03;0.70;;;0.70;;
17079;SDS011;8655;57.106;-2.088;2023-02-28T11:08:31;0.85;;;0.68;;
17079;SDS011;8655;57.106;-2.088;2023-02-28T11:11:03;0.77;;;0.73;;
17079;SDS011;8655;57.106;-2.088;2023-02-28T11:13:35;0.40;;;0.40;;
17079;SDS011;8655;57.106;-2.088;2023-02-28T11:16:06;0.63;;;0.63;;
17079;SDS011;8655;57.106;-2.088;2023-02-28T11:21:18;0.93;;;0.60;;
17079;SDS011;8655;57.106;-2.088;2023-02-28T11:23:52;0.80;;;0.80;;
17079;SDS011;8655;57.106;-2.088;2023-02-28T11:26:37;0.70;;;0.67;;
17079;SDS011;8655;57.106;-2.088;2023-02-28T11:29:12;0.93;;;0.63;;
17079;SDS011;8655;57.106;-2.088;2023-02-28T11:32:05;0.60;;;0.60;;
17079;SDS011;8655;57.106;-2.088;2023-02-28T11:34:44;0.73;;;0.60;;
17079;SDS011;8655;57.106;-2.088;2023-02-28T11:37:12;0.60;;;0.60;;
17079;SDS011;8655;57.106;-2.088;2023-02-28T11:39:43;1.03;;;0.70;;
17079;SDS011;8655;57.106;-2.088;2023-02-28T11:44:59;1.20;;;0.60;;
17079;SDS011;8655;57.106;-2.088;2023-02-28T11:53:19;0.70;;;0.70;;
17079;SDS011;8655;57.106;-2.088;2023-02-28T12:04:16;0.95;;;0.70;;
17079;SDS011;8655;57.106;-2.088;2023-02-28T12:07:03;0.87;;;0.63;;
17079;SDS011;8655;57.106;-2.088;2023-02-28T12:28:10;1.47;;;0.80;;
17079;SDS011;8655;57.106;-2.088;2023-02-28T12:31:01;0.70;;;0.60;;
17079;SDS011;8655;57.106;-2.088;2023-02-28T12:33:36;1.20;;;0.70;;
17079;SDS011;8655;57.106;-2.088;2023-02-28T12:36:11;1.17;;;0.67;;
17079;SDS011;8655;57.106;-2.088;2023-02-28T12:38:45;0.60;;;0.60;;
17079;SDS011;8655;57.106;-2.088;2023-02-28T12:41:17;0.83;;;0.67;;
17079;SDS011;8655;57.106;-2.088;2023-02-28T12:43:51;0.90;;;0.67;;
17079;SDS011;8655;57.106;-2.088;2023-02-28T12:46:49;1.10;;;0.80;;
17079;SDS011;8655;57.106;-2.088;2023-02-28T12:49:38;0.60;;;0.60;;
17079;SDS011;8655;57.106;-2.088;2023-02-28T12:52:07;0.67;;;0.50;;
17079;SDS011;8655;57.106;-2.088;2023-02-28T12:54:46;0.70;;;0.70;;
17079;SDS011;8655;57.106;-2.088;2023-02-28T12:57:41;1.10;;;0.80;;
17079;SDS011;8655;57.106;-2.088;2023-02-28T13:00:23;1.03;;;0.80;;
17079;SDS011;8655;57.106;-2.088;2023-02-28T13:05:24;1.00;;;0.90;;
17079;SDS011;8655;57.106;-2.088;2023-02-28T13:11:38;0.60;;;0.60;;
17079;SDS011;8655;57.106;-2.088;2023-02-28T13:14:06;1.43;;;0.90;;
17079;SDS011;8655;57.106;-2.088;2023-02-28T13:22:04;0.97;;;0.80;;
17079;SDS011;8655;57.106;-2.088;2023-02-28T13:27:19;0.50;;;0.50;;
17079;SDS011;8655;57.106;-2.088;2023-02-28T13:35:45;1.00;;;0.70;;
17079;SDS011;8655;57.106;-2.088;2023-02-28T13:38:21;1.20;;;0.80;;
17079;SDS011;8655;57.106;-2.088;2023-02-28T13:40:49;0.97;;;0.87;;
17079;SDS011;8655;57.106;-2.088;2023-02-28T13:43:16;0.80;;;0.80;;
17079;SDS011;8655;57.106;-2.088;2023-02-28T13:46:03;1.90;;;0.97;;
17079;SDS011;8655;57.106;-2.088;2023-02-28T13:48:37;0.90;;;0.80;;
17079;SDS011;8655;57.106;-2.088;2023-02-28T13:51:26;1.53;;;0.77;;
17079;SDS011;8655;57.106;-2.088;2023-02-28T13:54:06;1.13;;;0.80;;
17079;SDS011;8655;57.106;-2.088;2023-02-28T13:57:29;0.80;;;0.80;;
17079;SDS011;8655;57.106;-2.088;2023-02-28T14:02:33;2.27;;;1.10;;
17079;SDS011;8655;57.106;-2.088;2023-02-28T14:05:20;1.00;;;0.70;;
17079;SDS011;8655;57.106;-2.088;2023-02-28T14:07:51;1.80;;;0.97;;
17079;SDS011;8655;57.106;-2.088;2023-02-28T14:10:24;0.77;;;0.67;;
17079;SDS011;8655;57.106;-2.088;2023-02-28T14:15:27;1.17;;;0.90;;
17079;SDS011;8655;57.106;-2.088;2023-02-28T14:18:13;1.00;;;0.83;;
17079;SDS011;8655;57.106;-2.088;2023-02-28T14:20:43;1.03;;;0.90;;
17079;SDS011;8655;57.106;-2.088;2023-02-28T14:23:22;0.80;;;0.80;;
17079;SDS011;8655;57.106;-2.088;2023-02-28T14:31:39;1.27;;;0.80;;
17079;SDS011;8655;57.106;-2.088;2023-02-28T14:36:51;1.77;;;1.00;;
17079;SDS011;8655;57.106;-2.088;2023-02-28T14:39:20;1.80;;;1.00;;
17079;SDS011;8655;57.106;-2.088;2023-02-28T14:41:49;1.60;;;0.90;;
17079;SDS011;8655;57.106;-2.088;2023-02-28T14:44:25;2.00;;;1.00;;
17079;SDS011;8655;57.106;-2.088;2023-02-28T14:47:02;0.80;;;0.70;;
17079;SDS011;8655;57.106;-2.088;2023-02-28T14:49:37;1.80;;;1.13;;
17079;SDS011;8655;57.106;-2.088;2023-02-28T14:52:22;1.50;;;1.00;;
17079;SDS011;8655;57.106;-2.088;2023-02-28T14:55:05;1.00;;;0.83;;
17079;SDS011;8655;57.106;-2.088;2023-02-28T14:57:41;0.93;;;0.70;;
17079;SDS011;8655;57.106;-2.088;2023-02-28T15:00:18;1.50;;;0.90;;
17079;SDS011;8655;57.106;-2.088;2023-02-28T15:02:55;1.70;;;0.90;;
17079;SDS011;8655;57.106;-2.088;2023-02-28T15:08:06;1.23;;;0.83;;
17079;SDS011;8655;57.106;-2.088;2023-02-28T15:10:43;2.87;;;1.00;;
17079;SDS011;8655;57.106;-2.088;2023-02-28T15:13:15;1.73;;;0.97;;
17079;SDS011;8655;57.106;-2.088;2023-02-28T15:15:49;1.37;;;0.83;;
17079;SDS011;8655;57.106;-2.088;2023-02-28T15:21:22;1.40;;;0.90;;
17079;SDS011;8655;57.106;-2.088;2023-02-28T15:26:29;1.40;;;0.90;;
17079;SDS011;8655;57.106;-2.088;2023-02-28T15:28:59;1.33;;;0.83;;
17079;SDS011;8655;57.106;-2.088;2023-02-28T15:31:28;1.27;;;0.90;;
17079;SDS011;8655;57.106;-2.088;2023-02-28T15:33:57;1.27;;;1.00;;
17079;SDS011;8655;57.106;-2.088;2023-02-28T15:36:32;1.80;;;1.10;;
17079;SDS011;8655;57.106;-2.088;2023-02-28T15:39:02;1.33;;;0.73;;
17079;SDS011;8655;57.106;-2.088;2023-02-28T15:41:43;1.37;;;1.00;;
17079;SDS011;8655;57.106;-2.088;2023-02-28T15:46:45;1.50;;;1.00;;
17079;SDS011;8655;57.106;-2.088;2023-02-28T15:49:23;1.80;;;1.00;;
17079;SDS011;8655;57.106;-2.088;2023-02-28T15:51:50;1.40;;;0.97;;
17079;SDS011;8655;57.106;-2.088;2023-02-28T15:54:23;1.93;;;0.90;;
17079;SDS011;8655;57.106;-2.088;2023-02-28T15:56:55;2.40;;;1.10;;
17079;SDS011;8655;57.106;-2.088;2023-02-28T15:59:23;1.27;;;0.83;;
17079;SDS011;8655;57.106;-2.088;2023-02-28T16:04:36;1.50;;;0.93;;
17079;SDS011;8655;57.106;-2.088;2023-02-28T16:07:19;2.73;;;1.17;;
17079;SDS011;8655;57.106;-2.088;2023-02-28T16:09:44;1.73;;;1.10;;
17079;SDS011;8655;57.106;-2.088;2023-02-28T16:12:11;1.27;;;0.80;;
17079;SDS011;8655;57.106;-2.088;2023-02-28T16:14:38;2.17;;;0.90;;
17079;SDS011;8655;57.106;-2.088;2023-02-28T16:17:06;1.37;;;0.90;;
17079;SDS011;8655;57.106;-2.088;2023-02-28T16:19:41;1.27;;;0.90;;
17079;SDS011;8655;57.106;-2.088;2023-02-28T16:22:07;1.90;;;1.00;;
17079;SDS011;8655;57.106;-2.088;2023-02-28T16:24:34;1.73;;;1.03;;
17079;SDS011;8655;57.106;-2.088;2023-02-28T16:27:00;1.10;;;1.00;;
17079;SDS011;8655;57.106;-2.088;2023-02-28T16:29:27;1.97;;;1.03;;
17079;SDS011;8655;57.106;-2.088;2023-02-28T16:31:59;1.43;;;0.90;;
17079;SDS011;8655;57.106;-2.088;2023-02-28T16:34:26;2.90;;;0.97;;
17079;SDS011;8655;57.106;-2.088;2023-02-28T16:36:51;1.47;;;1.20;;
17079;SDS011;8655;57.106;-2.088;2023-02-28T16:39:17;1.70;;;0.90;;
17079;SDS011;8655;57.106;-2.088;2023-02-28T16:41:45;1.67;;;1.00;;
17079;SDS011;8655;57.106;-2.088;2023-02-28T16:44:17;1.53;;;0.70;;
17079;SDS011;8655;57.106;-2.088;2023-02-28T16:46:51;1.50;;;1.10;;
17079;SDS011;8655;57.106;-2.088;2023-02-28T16:49:17;2.10;;;1.13;;
17079;SDS011;8655;57.106;-2.088;2023-02-28T16:51:43;1.37;;;0.90;;
17079;SDS011;8655;57.106;-2.088;2023-02-28T16:54:09;2.17;;;1.03;;
17079;SDS011;8655;57.106;-2.088;2023-02-28T16:56:34;2.07;;;1.10;;
17079;SDS011;8655;57.106;-2.088;2023-02-28T16:59:00;1.50;;;1.20;;
17079;SDS011;8655;57.106;-2.088;2023-02-28T17:01:27;1.70;;;0.93;;
17079;SDS011;8655;57.106;-2.088;2023-02-28T17:03:53;1.43;;;0.90;;
17079;SDS011;8655;57.106;-2.088;2023-02-28T17:06:21;1.97;;;1.10;;
17079;SDS011;8655;57.106;-2.088;2023-02-28T17:08:50;1.27;;;0.83;;
17079;SDS011;8655;57.106;-2.088;2023-02-28T17:11:17;0.70;;;0.70;;
17079;SDS011;8655;57.106;-2.088;2023-02-28T17:13:43;2.03;;;1.10;;
17079;SDS011;8655;57.106;-2.088;2023-02-28T17:16:17;0.83;;;0.80;;
17079;SDS011;8655;57.106;-2.088;2023-02-28T17:18:57;1.43;;;1.10;;
17079;SDS011;8655;57.106;-2.088;2023-02-28T17:21:25;1.00;;;0.87;;
17079;SDS011;8655;57.106;-2.088;2023-02-28T17:23:51;1.60;;;1.00;;
17079;SDS011;8655;57.106;-2.088;2023-02-28T17:26:17;1.40;;;1.03;;
17079;SDS011;8655;57.106;-2.088;2023-02-28T17:28:49;1.20;;;0.97;;
17079;SDS011;8655;57.106;-2.088;2023-02-28T17:31:16;1.27;;;0.90;;
17079;SDS011;8655;57.106;-2.088;2023-02-28T17:33:42;1.10;;;0.83;;
17079;SDS011;8655;57.106;-2.088;2023-02-28T17:36:15;1.87;;;1.20;;
17079;SDS011;8655;57.106;-2.088;2023-02-28T17:38:43;1.33;;;0.80;;
17079;SDS011;8655;57.106;-2.088;2023-02-28T17:41:09;1.20;;;0.73;;
17079;SDS011;8655;57.106;-2.088;2023-02-28T17:43:36;1.47;;;0.97;;
17079;SDS011;8655;57.106;-2.088;2023-02-28T17:46:01;2.77;;;1.13;;
17079;SDS011;8655;57.106;-2.088;2023-02-28T17:48:29;1.93;;;0.87;;
17079;SDS011;8655;57.106;-2.088;2023-02-28T17:50:56;1.97;;;0.90;;
17079;SDS011;8655;57.106;-2.088;2023-02-28T17:53:21;2.53;;;1.20;;
17079;SDS011;8655;57.106;-2.088;2023-02-28T17:55:48;1.33;;;0.90;;
17079;SDS011;8655;57.106;-2.088;2023-02-28T17:58:16;2.23;;;1.10;;
17079;SDS011;8655;57.106;-2.088;2023-02-28T18:00:43;1.50;;;1.10;;
17079;SDS011;8655;57.106;-2.088;2023-02-28T18:03:10;1.50;;;0.87;;
17079;SDS011;8655;57.106;-2.088;2023-02-28T18:05:37;1.23;;;0.93;;
17079;SDS011;8655;57.106;-2.088;2023-02-28T18:08:03;1.03;;;0.80;;
17079;SDS011;8655;57.106;-2.088;2023-02-28T18:10:29;1.17;;;0.90;;
17079;SDS011;8655;57.106;-2.088;2023-02-28T18:12:58;1.23;;;0.87;;
17079;SDS011;8655;57.106;-2.088;2023-02-28T18:15:23;1.70;;;0.80;;
17079;SDS011;8655;57.106;-2.088;2023-02-28T18:17:49;1.73;;;0.90;;
17079;SDS011;8655;57.106;-2.088;2023-02-28T18:20:15;1.33;;;1.00;;
17079;SDS011;8655;57.106;-2.088;2023-02-28T18:22:42;1.83;;;1.10;;
17079;SDS011;8655;57.106;-2.088;2023-02-28T18:25:09;0.90;;;0.80;;
17079;SDS011;8655;57.106;-2.088;2023-02-28T18:27:38;1.80;;;1.00;;
17079;SDS011;8655;57.106;-2.088;2023-02-28T18:30:17;1.10;;;1.00;;
17079;SDS011;8655;57.106;-2.088;2023-02-28T18:32:46;1.93;;;0.80;;
17079;SDS011;8655;57.106;-2.088;2023-02-28T18:35:13;1.33;;;0.70;;
17079;SDS011;8655;57.106;-2.088;2023-02-28T18:37:38;0.80;;;0.80;;
17079;SDS011;8655;57.106;-2.088;2023-02-28T18:40:04;1.50;;;0.80;;
17079;SDS011;8655;57.106;-2.088;2023-02-28T18:42:30;1.87;;;0.97;;
17079;SDS011;8655;57.106;-2.088;2023-02-28T18:44:56;1.13;;;0.90;;
17079;SDS011;8655;57.106;-2.088;2023-02-28T18:47:22;1.17;;;1.00;;
17079;SDS011;8655;57.106;-2.088;2023-02-28T18:49:47;2.00;;;0.93;;
17079;SDS011;8655;57.106;-2.088;2023-02-28T18:52:13;1.10;;;1.00;;
17079;SDS011;8655;57.106;-2.088;2023-02-28T18:54:39;2.10;;;1.03;;
17079;SDS011;8655;57.106;-2.088;2023-02-28T18:57:04;2.43;;;1.17;;
17079;SDS011;8655;57.106;-2.088;2023-02-28T18:59:30;1.23;;;0.77;;
17079;SDS011;8655;57.106;-2.088;2023-02-28T19:01:56;1.00;;;0.90;;
17079;SDS011;8655;57.106;-2.088;2023-02-28T19:04:22;1.50;;;1.00;;
17079;SDS011;8655;57.106;-2.088;2023-02-28T19:06:48;1.70;;;1.13;;
17079;SDS011;8655;57.106;-2.088;2023-02-28T19:09:14;0.80;;;0.80;;
17079;SDS011;8655;57.106;-2.088;2023-02-28T19:11:40;1.30;;;1.00;;
17079;SDS011;8655;57.106;-2.088;2023-02-28T19:14:05;1.17;;;1.00;;
17079;SDS011;8655;57.106;-2.088;2023-02-28T19:16:33;1.27;;;1.00;;
17079;SDS011;8655;57.106;-2.088;2023-02-28T19:18:59;1.67;;;1.10;;
17079;SDS011;8655;57.106;-2.088;2023-02-28T19:21:25;1.67;;;1.00;;
17079;SDS011;8655;57.106;-2.088;2023-02-28T19:23:51;1.13;;;1.00;;
17079;SDS011;8655;57.106;-2.088;2023-02-28T19:26:18;2.03;;;1.20;;
17079;SDS011;8655;57.106;-2.088;2023-02-28T19:28:45;1.43;;;1.10;;
17079;SDS011;8655;57.106;-2.088;2023-02-28T19:31:12;1.80;;;1.23;;
17079;SDS011;8655;57.106;-2.088;2023-02-28T19:33:39;1.40;;;1.00;;
17079;SDS011;8655;57.106;-2.088;2023-02-28T19:36:05;1.77;;;0.90;;
17079;SDS011;8655;57.106;-2.088;2023-02-28T19:38:32;1.67;;;1.20;;
17079;SDS011;8655;57.106;-2.088;2023-02-28T19:41:01;1.50;;;1.00;;
17079;SDS011;8655;57.106;-2.088;2023-02-28T19:43:28;1.60;;;1.00;;
17079;SDS011;8655;57.106;-2.088;2023-02-28T19:45:54;3.13;;;1.42;;
17079;SDS011;8655;57.106;-2.088;2023-02-28T19:48:20;1.93;;;1.17;;
17079;SDS011;8655;57.106;-2.088;2023-02-28T19:50:49;1.92;;;1.35;;
17079;SDS011;8655;57.106;-2.088;2023-02-28T19:53:15;4.07;;;1.55;;
17079;SDS011;8655;57.106;-2.088;2023-02-28T19:55:41;1.85;;;1.10;;
17079;SDS011;8655;57.106;-2.088;2023-02-28T19:58:06;1.10;;;0.88;;
17079;SDS011;8655;57.106;-2.088;2023-02-28T20:00:32;1.40;;;1.13;;
17079;SDS011;8655;57.106;-2.088;2023-02-28T20:02:57;3.28;;;1.60;;
17079;SDS011;8655;57.106;-2.088;2023-02-28T20:05:23;1.98;;;1.20;;
17079;SDS011;8655;57.106;-2.088;2023-02-28T20:07:49;1.67;;;1.10;;
17079;SDS011;8655;57.106;-2.088;2023-02-28T20:10:14;1.92;;;1.35;;
17079;SDS011;8655;57.106;-2.088;2023-02-28T20:12:40;1.42;;;1.17;;
17079;SDS011;8655;57.106;-2.088;2023-02-28T20:15:06;1.75;;;1.40;;
17079;SDS011;8655;57.106;-2.088;2023-02-28T20:17:32;1.73;;;1.20;;
17079;SDS011;8655;57.106;-2.088;2023-02-28T20:19:58;2.30;;;1.10;;
17079;SDS011;8655;57.106;-2.088;2023-02-28T20:22:24;2.00;;;1.13;;
17079;SDS011;8655;57.106;-2.088;2023-02-28T20:24:49;2.50;;;1.35;;
17079;SDS011;8655;57.106;-2.088;2023-02-28T20:27:15;1.23;;;1.13;;
17079;SDS011;8655;57.106;-2.088;2023-02-28T20:29:41;1.17;;;1.08;;
17079;SDS011;8655;57.106;-2.088;2023-02-28T20:32:06;1.60;;;1.23;;
17079;SDS011;8655;57.106;-2.088;2023-02-28T20:34:32;1.50;;;1.00;;
17079;SDS011;8655;57.106;-2.088;2023-02-28T20:36:58;1.65;;;1.13;;
17079;SDS011;8655;57.106;-2.088;2023-02-28T20:39:24;1.58;;;1.10;;
17079;SDS011;8655;57.106;-2.088;2023-02-28T20:41:50;2.17;;;1.30;;
17079;SDS011;8655;57.106;-2.088;2023-02-28T20:44:15;1.58;;;1.25;;
17079;SDS011;8655;57.106;-2.088;2023-02-28T20:46:41;2.17;;;1.33;;
17079;SDS011;8655;57.106;-2.088;2023-02-28T20:49:08;2.83;;;1.30;;
17079;SDS011;8655;57.106;-2.088;2023-02-28T20:51:34;1.20;;;1.10;;
17079;SDS011;8655;57.106;-2.088;2023-02-28T20:54:04;1.90;;;1.10;;
17079;SDS011;8655;57.106;-2.088;2023-02-28T20:56:31;2.83;;;1.30;;
17079;SDS011;8655;57.106;-2.088;2023-02-28T20:58:57;1.80;;;1.25;;
17079;SDS011;8655;57.106;-2.088;2023-02-28T21:01:24;2.85;;;1.10;;
17079;SDS011;8655;57.106;-2.088;2023-02-28T21:03:53;1.25;;;1.02;;
17079;SDS011;8655;57.106;-2.088;2023-02-28T21:06:24;1.70;;;1.20;;
17079;SDS011;8655;57.106;-2.088;2023-02-28T21:08:52;1.48;;;1.10;;
17079;SDS011;8655;57.106;-2.088;2023-02-28T21:11:22;2.28;;;1.30;;
17079;SDS011;8655;57.106;-2.088;2023-02-28T21:13:58;2.17;;;1.30;;
17079;SDS011;8655;57.106;-2.088;2023-02-28T21:16:26;1.85;;;0.95;;
17079;SDS011;8655;57.106;-2.088;2023-02-28T21:18:53;2.58;;;1.40;;
17079;SDS011;8655;57.106;-2.088;2023-02-28T21:21:21;1.25;;;1.10;;
17079;SDS011;8655;57.106;-2.088;2023-02-28T21:23:48;1.83;;;1.10;;
17079;SDS011;8655;57.106;-2.088;2023-02-28T21:26:16;2.50;;;1.33;;
17079;SDS011;8655;57.106;-2.088;2023-02-28T21:29:02;2.05;;;1.20;;
17079;SDS011;8655;57.106;-2.088;2023-02-28T21:31:29;1.63;;;1.00;;
17079;SDS011;8655;57.106;-2.088;2023-02-28T21:33:56;2.10;;;1.20;;
17079;SDS011;8655;57.106;-2.088;2023-02-28T21:36:23;2.67;;;1.10;;
17079;SDS011;8655;57.106;-2.088;2023-02-28T21:38:55;1.42;;;1.23;;
17079;SDS011;8655;57.106;-2.088;2023-02-28T21:41:21;1.70;;;1.20;;
17079;SDS011;8655;57.106;-2.088;2023-02-28T21:43:48;1.10;;;1.00;;
17079;SDS011;8655;57.106;-2.088;2023-02-28T21:46:19;2.50;;;1.27;;
17079;SDS011;8655;57.106;-2.088;2023-02-28T21:48:46;1.60;;;1.15;;
17079;SDS011;8655;57.106;-2.088;2023-02-28T21:51:17;2.33;;;1.27;;
17079;SDS011;8655;57.106;-2.088;2023-02-28T21:53:48;1.75;;;1.10;;
17079;SDS011;8655;57.106;-2.088;2023-02-28T21:56:24;1.10;;;1.00;;
17079;SDS011;8655;57.106;-2.088;2023-02-28T21:58:52;1.80;;;1.30;;
17079;SDS011;8655;57.106;-2.088;2023-02-28T22:01:24;2.20;;;1.25;;
17079;SDS011;8655;57.106;-2.088;2023-02-28T22:03:55;1.07;;;0.93;;
17079;SDS011;8655;57.106;-2.088;2023-02-28T22:06:22;1.33;;;1.10;;
17079;SDS011;8655;57.106;-2.088;2023-02-28T22:08:51;1.88;;;1.10;;
17079;SDS011;8655;57.106;-2.088;2023-02-28T22:11:18;1.95;;;1.10;;
17079;SDS011;8655;57.106;-2.088;2023-02-28T22:13:45;1.73;;;1.10;;
17079;SDS011;8655;57.106;-2.088;2023-02-28T22:16:13;1.20;;;1.07;;
17079;SDS011;8655;57.106;-2.088;2023-02-28T22:18:40;1.90;;;1.15;;
17079;SDS011;8655;57.106;-2.088;2023-02-28T22:21:07;1.93;;;1.10;;
17079;SDS011;8655;57.106;-2.088;2023-02-28T22:23:34;2.23;;;1.23;;
17079;SDS011;8655;57.106;-2.088;2023-02-28T22:26:01;1.60;;;1.02;;
17079;SDS011;8655;57.106;-2.088;2023-02-28T22:28:28;2.05;;;1.25;;
17079;SDS011;8655;57.106;-2.088;2023-02-28T22:30:54;1.60;;;1.10;;
17079;SDS011;8655;57.106;-2.088;2023-02-28T22:33:21;1.70;;;1.20;;
17079;SDS011;8655;57.106;-2.088;2023-02-28T22:35:47;2.70;;;1.50;;
17079;SDS011;8655;57.106;-2.088;2023-02-28T22:38:13;2.00;;;1.00;;
17079;SDS011;8655;57.106;-2.088;2023-02-28T22:40:39;1.15;;;0.90;;
17079;SDS011;8655;57.106;-2.088;2023-02-28T22:43:05;1.35;;;0.90;;
17079;SDS011;8655;57.106;-2.088;2023-02-28T22:45:33;1.50;;;1.00;;
17079;SDS011;8655;57.106;-2.088;2023-02-28T22:48:00;1.20;;;0.82;;
17079;SDS011;8655;57.106;-2.088;2023-02-28T22:50:27;2.50;;;1.20;;
17079;SDS011;8655;57.106;-2.088;2023-02-28T22:52:53;1.10;;;1.00;;
17079;SDS011;8655;57.106;-2.088;2023-02-28T22:55:20;1.75;;;1.00;;
17079;SDS011;8655;57.106;-2.088;2023-02-28T22:57:45;1.50;;;1.20;;
17079;SDS011;8655;57.106;-2.088;2023-02-28T23:00:11;1.52;;;1.10;;
17079;SDS011;8655;57.106;-2.088;2023-02-28T23:02:42;2.10;;;1.10;;
17079;SDS011;8655;57.106;-2.088;2023-02-28T23:05:08;1.53;;;1.20;;
17079;SDS011;8655;57.106;-2.088;2023-02-28T23:07:36;1.92;;;1.05;;
17079;SDS011;8655;57.106;-2.088;2023-02-28T23:10:03;1.48;;;1.05;;
17079;SDS011;8655;57.106;-2.088;2023-02-28T23:12:30;1.30;;;0.90;;
17079;SDS011;8655;57.106;-2.088;2023-02-28T23:14:56;2.55;;;0.93;;
17079;SDS011;8655;57.106;-2.088;2023-02-28T23:17:22;1.42;;;0.80;;
17079;SDS011;8655;57.106;-2.088;2023-02-28T23:19:48;1.57;;;1.10;;